Time;durP1;ratioP1;P1;durP2;ratioP2;P2;SDS_P1;SDS_P2;PMS_P1;PMS_P2;Temp;Humidity;BMP_temperature;BMP_pressure;BME280_temperature;BME280_humidity;BME280_pressure;Samples;Min_cycle;Max_cycle;Signal;HPM_P1;HPM_P2
2022/05/15 00:01:10;;;;;;;19.40;11.57;;;;;;;9.70;97.62;102195.94;5033995;28;20458;-46
2022/05/15 00:03:39;;;;;;;21.73;10.83;;;;;;;9.67;97.53;102193.59;5035738;28;20470;-48
2022/05/15 00:06:07;;;;;;;20.33;10.40;;;;;;;9.69;97.61;102194.25;5035367;28;20463;-48
2022/05/15 00:08:38;;;;;;;20.40;11.30;;;;;;;9.66;97.60;102194.56;5035655;28;20454;-45
2022/05/15 00:11:07;;;;;;;15.93;10.77;;;;;;;9.62;97.58;102198.53;5034858;28;20448;-48
2022/05/15 00:13:34;;;;;;;14.80;10.27;;;;;;;9.58;97.65;102203.34;5035362;28;20428;-48
2022/05/15 00:16:03;;;;;;;17.27;10.80;;;;;;;9.48;97.31;102199.94;5035003;28;20999;-44
2022/05/15 00:18:32;;;;;;;21.10;12.90;;;;;;;9.45;97.47;102202.91;5035329;28;20435;-47
2022/05/15 00:21:00;;;;;;;10.87;9.77;;;;;;;9.37;97.41;102200.16;5034589;28;20464;-46
2022/05/15 00:23:28;;;;;;;18.00;11.03;;;;;;;9.32;97.33;102199.78;5035391;28;20805;-45
2022/05/15 00:25:55;;;;;;;17.03;11.30;;;;;;;9.28;97.34;102199.28;5035162;28;20460;-46
2022/05/15 00:28:23;;;;;;;19.53;11.07;;;;;;;9.24;97.35;102203.22;5035153;28;20435;-48
2022/05/15 00:30:51;;;;;;;26.53;11.70;;;;;;;9.18;97.21;102201.16;5034257;28;20460;-46
2022/05/15 00:33:19;;;;;;;20.57;11.43;;;;;;;9.11;97.30;102205.41;5035171;28;20436;-49
2022/05/15 00:35:48;;;;;;;12.23;10.93;;;;;;;9.05;97.23;102197.22;5034829;28;20482;-44
2022/05/15 00:38:16;;;;;;;16.03;11.07;;;;;;;8.99;97.24;102203.13;5035228;28;20432;-47
2022/05/15 00:40:46;;;;;;;24.10;11.13;;;;;;;8.94;97.08;102200.06;5034318;28;20460;-45
2022/05/15 00:43:35;;;;;;;17.70;10.37;;;;;;;8.88;97.04;102199.69;5034866;28;20791;-46
2022/05/15 00:46:03;;;;;;;17.90;9.43;;;;;;;8.84;97.21;102200.16;5034835;28;20973;-46
2022/05/15 00:48:31;;;;;;;13.63;11.03;;;;;;;8.78;97.12;102200.75;5034849;28;20942;-44
2022/05/15 00:51:04;;;;;;;16.20;10.47;;;;;;;8.74;96.93;102204.69;5034159;28;20494;-46
2022/05/15 00:53:35;;;;;;;14.63;11.70;;;;;;;8.74;97.44;102202.88;5034750;28;20433;-47
2022/05/15 00:56:03;;;;;;;13.83;11.37;;;;;;;8.76;97.30;102210.69;5034490;28;20818;-44
2022/05/15 00:58:36;;;;;;;16.77;10.30;;;;;;;8.75;97.58;102206.38;5034686;28;20439;-46
2022/05/15 01:01:05;;;;;;;13.83;10.40;;;;;;;8.72;97.72;102206.66;5033949;28;20460;-49
2022/05/15 01:03:33;;;;;;;15.80;10.90;;;;;;;8.69;97.38;102207.78;5034513;28;20432;-46
2022/05/15 01:06:02;;;;;;;13.13;11.87;;;;;;;8.63;97.33;102205.72;5034160;28;20455;-48
2022/05/15 01:08:30;;;;;;;18.27;11.27;;;;;;;8.59;97.21;102209.69;5031234;28;20447;-52
2022/05/15 01:11:04;;;;;;;15.70;11.57;;;;;;;8.55;97.22;102210.94;5030941;28;20585;-46
2022/05/15 01:13:34;;;;;;;12.37;10.03;;;;;;;8.49;97.36;102214.19;5032894;28;20432;-44
2022/05/15 01:16:02;;;;;;;15.53;9.50;;;;;;;8.43;97.18;102206.81;5033907;28;21004;-48
2022/05/15 01:18:33;;;;;;;14.13;10.20;;;;;;;8.37;97.17;102212.69;5034102;28;20433;-45
2022/05/15 01:21:04;;;;;;;10.23;9.43;;;;;;;8.30;97.15;102209.78;5033355;28;20800;-44
2022/05/15 01:23:32;;;;;;;13.30;9.97;;;;;;;8.25;97.03;102216.50;5034361;28;20435;-48
2022/05/15 01:26:00;;;;;;;10.20;8.97;;;;;;;8.19;97.24;102211.75;5034083;28;20452;-47
2022/05/15 01:28:28;;;;;;;9.23;8.40;;;;;;;8.15;97.31;102213.88;5034104;28;20432;-44
2022/05/15 01:30:58;;;;;;;13.47;10.03;;;;;;;8.11;97.24;102209.00;5033323;28;20828;-47
2022/05/15 01:33:25;;;;;;;18.73;10.17;;;;;;;8.07;97.26;102212.91;5033853;28;20460;-49
2022/05/15 01:35:53;;;;;;;12.57;9.97;;;;;;;8.03;97.47;102211.56;5033985;28;20480;-48
2022/05/15 01:38:22;;;;;;;14.87;10.23;;;;;;;8.01;97.57;102206.38;5034050;28;20448;-49
2022/05/15 01:40:51;;;;;;;12.37;11.03;;;;;;;7.97;97.32;102212.97;5033101;28;20456;-44
2022/05/15 01:43:19;;;;;;;17.40;11.40;;;;;;;7.94;97.73;102212.41;5033972;28;20447;-46
2022/05/15 01:45:46;;;;;;;19.47;11.77;;;;;;;7.92;97.62;102209.88;5033777;28;21204;-47
2022/05/15 01:48:14;;;;;;;17.13;12.00;;;;;;;7.89;97.59;102210.16;5033369;28;20436;-43
2022/05/15 01:50:42;;;;;;;19.17;10.80;;;;;;;7.86;97.69;102212.28;5033014;28;20472;-47
2022/05/15 01:53:10;;;;;;;18.43;12.03;;;;;;;7.82;97.73;102209.91;5033482;28;20439;-44
2022/05/15 01:55:39;;;;;;;36.00;13.80;;;;;;;7.79;97.57;102214.69;5033366;28;20443;-47
2022/05/15 01:58:09;;;;;;;28.23;14.27;;;;;;;7.77;97.44;102214.81;5033335;28;20437;-47
2022/05/15 02:00:38;;;;;;;26.23;14.33;;;;;;;7.73;97.82;102212.59;5032793;28;20820;-46
2022/05/15 02:03:06;;;;;;;26.17;12.00;;;;;;;7.72;97.77;102218.88;5033877;28;20421;-45
2022/05/15 02:05:33;;;;;;;14.10;12.70;;;;;;;7.70;97.76;102220.84;5033331;28;20440;-46
2022/05/15 02:08:01;;;;;;;11.47;10.67;;;;;;;7.71;97.92;102219.84;5033156;28;21104;-45
2022/05/15 02:10:29;;;;;;;12.70;11.73;;;;;;;7.68;97.73;102220.13;5032201;28;21016;-44
2022/05/15 02:12:59;;;;;;;16.27;11.13;;;;;;;7.66;97.67;102224.75;5033130;28;20432;-45
2022/05/15 02:15:27;;;;;;;24.53;13.20;;;;;;;7.62;98.33;102224.19;5032872;28;20442;-46
2022/05/15 02:17:54;;;;;;;31.87;13.70;;;;;;;7.58;97.87;102219.31;5032905;28;20468;-44
2022/05/15 02:20:22;;;;;;;31.80;11.60;;;;;;;7.54;97.71;102215.25;5032219;28;20456;-47
2022/05/15 02:22:49;;;;;;;49.60;14.80;;;;;;;7.48;97.82;102221.97;5032594;28;20523;-44
2022/05/15 02:25:17;;;;;;;102.50;17.53;;;;;;;7.45;98.08;102222.25;5032418;28;20439;-47
2022/05/15 02:27:46;;;;;;;35.63;13.97;;;;;;;7.41;98.17;102217.34;5032650;28;20534;-43
2022/05/15 02:30:16;;;;;;;36.73;14.30;;;;;;;7.35;97.95;102220.59;5032306;28;20460;-46
2022/05/15 02:32:45;;;;;;;132.80;17.70;;;;;;;7.29;98.02;102224.63;5032860;28;20428;-47
2022/05/15 02:35:12;;;;;;;34.93;13.13;;;;;;;7.23;98.33;102220.72;5032970;28;20420;-45
2022/05/15 02:37:41;;;;;;;52.50;14.27;;;;;;;7.19;98.15;102223.78;5032620;28;20503;-48
2022/05/15 02:40:10;;;;;;;33.07;13.70;;;;;;;7.16;97.96;102226.72;5032024;28;20527;-49
2022/05/15 02:42:38;;;;;;;68.90;14.60;;;;;;;7.12;98.24;102220.84;5032851;28;20440;-43
2022/05/15 02:45:07;;;;;;;17.10;13.10;;;;;;;7.08;98.55;102216.78;5032644;28;20532;-43
2022/05/15 02:47:36;;;;;;;12.67;11.60;;;;;;;7.07;98.41;102214.28;5032342;28;20452;-45
2022/05/15 02:52:53;;;;;;;14.80;12.17;;;;;;;7.04;98.40;102219.88;5032381;28;21075;-44
2022/05/15 02:55:22;;;;;;;33.03;13.40;;;;;;;7.01;97.83;102213.03;5032613;28;20436;-48
2022/05/15 02:57:50;;;;;;;19.87;13.67;;;;;;;7.00;98.29;102219.31;5032389;28;20472;-44
2022/05/15 03:00:20;;;;;;;27.83;13.43;;;;;;;6.99;98.16;102220.25;5031669;28;20459;-43
2022/05/15 03:02:49;;;;;;;13.93;11.67;;;;;;;6.97;98.84;102219.56;5032286;28;20442;-43
2022/05/15 03:05:19;;;;;;;17.73;12.30;;;;;;;6.98;98.01;102218.63;5032102;28;20436;-48
2022/05/15 03:07:46;;;;;;;15.53;14.00;;;;;;;6.96;98.14;102228.50;5032476;28;20451;-46
2022/05/15 03:10:17;;;;;;;12.20;11.20;;;;;;;6.98;98.33;102234.53;5031587;28;20833;-47
2022/05/15 03:12:45;;;;;;;13.93;12.67;;;;;;;6.99;98.31;102235.38;5032446;28;20837;-49
2022/05/15 03:15:14;;;;;;;15.00;11.90;;;;;;;6.99;98.24;102241.47;5032297;28;20432;-46
2022/05/15 03:17:43;;;;;;;16.80;10.83;;;;;;;6.98;98.66;102234.53;5031755;28;20966;-46
2022/05/15 03:20:14;;;;;;;13.07;11.97;;;;;;;7.00;98.34;102227.25;5031618;28;20464;-46
2022/05/15 03:22:42;;;;;;;14.27;12.97;;;;;;;7.01;98.58;102223.63;5032175;28;20432;-45
2022/05/15 03:25:11;;;;;;;12.80;11.80;;;;;;;7.04;98.55;102223.38;5031743;28;20447;-46
2022/05/15 03:27:39;;;;;;;14.93;12.40;;;;;;;7.05;98.45;102225.03;5031896;28;20458;-44
2022/05/15 03:30:08;;;;;;;12.27;11.07;;;;;;;7.06;98.84;102229.38;5031440;28;20453;-44
2022/05/15 03:32:37;;;;;;;11.10;10.30;;;;;;;7.08;98.54;102235.34;5032013;28;20451;-44
2022/05/15 03:35:06;;;;;;;12.20;10.97;;;;;;;7.10;98.59;102236.09;5031621;28;20440;-43
2022/05/15 03:37:36;;;;;;;11.67;10.57;;;;;;;7.13;98.62;102233.16;5031756;28;20483;-49
2022/05/15 03:40:04;;;;;;;12.97;10.60;;;;;;;7.14;98.31;102245.41;5031244;28;20459;-44
2022/05/15 03:42:32;;;;;;;10.50;9.70;;;;;;;7.16;98.49;102248.78;5031350;28;20534;-44
2022/05/15 03:45:00;;;;;;;10.70;9.83;;;;;;;7.19;98.36;102253.81;5031620;28;20926;-49
2022/05/15 03:47:27;;;;;;;11.10;10.40;;;;;;;7.27;98.33;102261.06;5031618;28;20448;-48
2022/05/15 03:49:55;;;;;;;10.50;9.60;;;;;;;7.36;98.59;102262.91;5031175;28;20466;-44
2022/05/15 03:52:22;;;;;;;9.90;9.20;;;;;;;7.42;98.35;102261.50;5031473;28;20428;-44
2022/05/15 03:54:51;;;;;;;9.87;9.10;;;;;;;7.51;98.67;102258.88;5031615;28;20447;-48
2022/05/15 03:57:19;;;;;;;11.33;9.97;;;;;;;7.60;98.50;102255.38;5031315;28;20478;-46
2022/05/15 03:59:47;;;;;;;11.20;10.07;;;;;;;7.68;97.84;102270.59;5031133;28;20480;-43
2022/05/15 04:02:15;;;;;;;15.20;11.03;;;;;;;7.71;97.62;102267.66;5031823;28;20432;-47
2022/05/15 04:04:43;;;;;;;16.80;11.50;;;;;;;7.77;98.09;102261.78;5031594;28;20438;-46
2022/05/15 04:07:12;;;;;;;16.43;10.87;;;;;;;7.86;97.72;102270.69;5031615;28;20448;-46
2022/05/15 04:09:40;;;;;;;18.40;12.00;;;;;;;7.91;98.10;102274.63;5031032;28;20466;-46
2022/05/15 04:12:10;;;;;;;17.40;12.10;;;;;;;7.98;97.95;102266.91;5031473;28;20515;-44
2022/05/15 04:14:38;;;;;;;43.07;13.90;;;;;;;8.04;98.00;102272.50;5031764;28;20794;-45
2022/05/15 04:17:06;;;;;;;63.63;15.30;;;;;;;8.13;97.76;102279.63;5030534;28;20482;-44
2022/05/15 04:19:35;;;;;;;36.50;13.20;;;;;;;8.22;97.94;102284.06;5030855;28;20448;-47
2022/05/15 04:22:05;;;;;;;105.67;16.77;;;;;;;8.30;97.66;102280.75;5031097;28;20440;-43
2022/05/15 04:24:33;;;;;;;201.80;20.50;;;;;;;8.40;97.85;102281.53;5031234;28;20902;-44
2022/05/15 04:27:01;;;;;;;111.67;19.27;;;;;;;8.52;97.98;102290.16;5031420;28;20840;-47
2022/05/15 04:29:30;;;;;;;90.63;17.07;;;;;;;8.66;97.81;102284.38;5030916;28;20809;-45
2022/05/15 04:31:58;;;;;;;144.73;20.67;;;;;;;8.82;97.83;102289.91;5031152;28;20438;-46
2022/05/15 04:34:27;;;;;;;69.50;15.87;;;;;;;8.99;98.04;102285.63;5031262;28;20543;-46
2022/05/15 04:36:56;;;;;;;52.57;14.17;;;;;;;9.11;97.55;102287.91;5031116;28;20822;-47
2022/05/15 04:39:23;;;;;;;37.23;12.70;;;;;;;9.25;97.82;102298.06;5030886;28;20980;-46
2022/05/15 04:41:51;;;;;;;59.93;16.07;;;;;;;9.37;97.60;102299.53;5031170;28;20447;-46
2022/05/15 04:44:18;;;;;;;54.10;14.77;;;;;;;9.41;96.83;102306.19;5031241;28;20432;-44
2022/05/15 04:46:47;;;;;;;73.20;17.27;;;;;;;9.49;96.46;102312.59;5031856;28;20527;-49
2022/05/15 04:49:15;;;;;;;69.57;15.03;;;;;;;9.65;96.63;102307.41;5034025;28;20428;-48
2022/05/15 04:51:43;;;;;;;64.63;15.30;;;;;;;9.73;95.74;102307.50;5034689;28;20432;-46
2022/05/15 04:54:10;;;;;;;72.53;16.20;;;;;;;9.85;95.38;102312.47;5034976;28;20424;-49
2022/05/15 04:56:38;;;;;;;31.03;13.07;;;;;;;10.03;95.73;102310.59;5034490;28;20973;-46
2022/05/15 04:59:05;;;;;;;22.47;11.30;;;;;;;10.16;95.03;102314.69;5034181;28;20475;-46
2022/05/15 05:01:33;;;;;;;21.63;11.60;;;;;;;10.25;93.91;102316.44;5034296;28;20433;-43
2022/05/15 05:04:02;;;;;;;22.80;11.20;;;;;;;10.37;93.27;102317.84;5034386;28;20436;-44
2022/05/15 05:06:30;;;;;;;35.17;12.00;;;;;;;10.45;92.15;102320.59;5034688;28;20818;-48
2022/05/15 05:08:57;;;;;;;32.43;11.20;;;;;;;10.44;91.56;102322.41;5034595;28;20432;-45
2022/05/15 05:11:26;;;;;;;74.57;14.73;;;;;;;10.44;90.95;102327.75;5033560;28;21057;-44
2022/05/15 05:13:54;;;;;;;26.77;12.23;;;;;;;10.54;91.99;102320.47;5034370;28;20439;-44
2022/05/15 05:16:21;;;;;;;21.47;11.67;;;;;;;10.68;92.02;102331.56;5033936;28;20463;-49
2022/05/15 05:18:50;;;;;;;12.63;11.10;;;;;;;10.81;91.97;102332.78;5034309;28;20476;-45
2022/05/15 05:21:19;;;;;;;14.03;11.23;;;;;;;10.89;91.84;102338.16;5033625;28;20468;-48
2022/05/15 05:23:46;;;;;;;12.37;11.23;;;;;;;10.96;91.95;102335.72;5034346;28;20438;-49
2022/05/15 05:26:14;;;;;;;10.23;9.43;;;;;;;10.99;91.61;102335.38;5034055;28;20536;-49
2022/05/15 05:28:42;;;;;;;17.87;11.90;;;;;;;11.00;90.90;102342.38;5034224;28;20428;-48
2022/05/15 05:31:11;;;;;;;12.17;11.30;;;;;;;11.05;91.32;102342.75;5033280;28;20458;-44
2022/05/15 05:33:39;;;;;;;16.50;12.13;;;;;;;11.10;91.52;102338.59;5034091;28;20527;-45
2022/05/15 05:36:07;;;;;;;13.20;11.90;;;;;;;11.15;91.74;102343.44;5034075;28;20456;-44
2022/05/15 05:38:37;;;;;;;17.17;13.07;;;;;;;11.21;91.45;102336.63;5033677;28;20476;-45
2022/05/15 05:41:04;;;;;;;12.33;11.10;;;;;;;11.22;91.52;102340.97;5033148;28;21011;-48
2022/05/15 05:43:32;;;;;;;23.17;14.03;;;;;;;11.27;91.77;102341.31;5033644;28;20436;-44
2022/05/15 05:46:00;;;;;;;19.67;13.87;;;;;;;11.30;91.91;102352.50;5033745;28;20558;-48
2022/05/15 05:48:29;;;;;;;15.47;13.73;;;;;;;11.41;92.36;102356.72;5033648;28;20424;-44
2022/05/15 05:50:57;;;;;;;14.90;11.97;;;;;;;11.48;91.95;102357.72;5033000;28;20463;-46
2022/05/15 05:53:24;;;;;;;22.73;14.07;;;;;;;11.49;91.64;102360.25;5033640;28;20446;-48
2022/05/15 05:55:53;;;;;;;34.83;15.43;;;;;;;11.50;91.64;102363.72;5033318;28;20466;-44
2022/05/15 05:58:21;;;;;;;23.50;14.60;;;;;;;11.62;92.59;102365.94;5033437;28;20476;-44
2022/05/15 06:00:49;;;;;;;22.17;14.30;;;;;;;11.70;92.36;102361.66;5032743;28;20460;-46
2022/05/15 06:06:01;;;;;;;20.63;14.13;;;;;;;11.62;90.76;102365.09;5033256;28;20818;-50
2022/05/15 06:08:30;;;;;;;22.77;13.23;;;;;;;11.64;91.71;102361.28;5033122;28;20499;-43
2022/05/15 06:10:59;;;;;;;17.07;12.70;;;;;;;11.76;92.43;102372.53;5032592;28;20469;-46
2022/05/15 06:13:27;;;;;;;22.60;13.60;;;;;;;11.72;91.42;102365.00;5033300;28;20416;-45
2022/05/15 06:15:55;;;;;;;21.83;13.67;;;;;;;11.64;91.63;102363.97;5033040;28;20466;-44
2022/05/15 06:18:23;;;;;;;16.77;12.67;;;;;;;11.61;92.05;102361.63;5033093;28;20848;-47
2022/05/15 06:20:51;;;;;;;21.50;12.40;;;;;;;11.64;92.63;102363.97;5032296;28;20464;-50
2022/05/15 06:23:19;;;;;;;24.60;12.27;;;;;;;11.62;92.27;102359.75;5033236;28;20438;-48
2022/05/15 06:25:46;;;;;;;18.73;11.53;;;;;;;11.56;92.50;102373.78;5032965;28;20456;-48
2022/05/15 06:28:15;;;;;;;15.70;11.57;;;;;;;11.50;92.06;102377.94;5033053;28;20941;-46
2022/05/15 06:30:43;;;;;;;18.23;11.37;;;;;;;11.48;91.95;102369.25;5032084;28;20980;-44
2022/05/15 06:33:11;;;;;;;15.20;12.07;;;;;;;11.64;91.78;102369.31;5032823;28;20924;-43
2022/05/15 06:35:44;;;;;;;18.93;11.63;;;;;;;11.83;92.19;102370.84;5032966;28;20547;-45
2022/05/15 06:38:11;;;;;;;17.90;11.93;;;;;;;11.95;90.97;102372.19;5033015;28;20808;-48
2022/05/15 06:40:39;;;;;;;23.63;13.93;;;;;;;12.02;90.63;102364.34;5032017;28;20989;-46
2022/05/15 06:43:06;;;;;;;18.20;11.90;;;;;;;12.15;90.10;102370.06;5032817;28;20442;-48
2022/05/15 06:45:36;;;;;;;13.17;11.03;;;;;;;12.34;90.44;102361.66;5032432;28;20447;-48
2022/05/15 06:48:04;;;;;;;17.07;11.30;;;;;;;12.45;87.34;102358.66;5032364;28;20428;-46
2022/05/15 06:50:32;;;;;;;13.47;10.63;;;;;;;12.54;87.50;102368.34;5031886;28;20479;-47
2022/05/15 06:52:59;;;;;;;18.87;11.20;;;;;;;12.65;86.36;102359.97;5032693;28;20539;-44
2022/05/15 06:55:27;;;;;;;19.07;12.73;;;;;;;12.76;82.85;102356.91;5032432;28;20432;-49
2022/05/15 06:57:56;;;;;;;20.70;11.03;;;;;;;13.10;84.09;102358.50;5032610;28;20428;-52
2022/05/15 07:00:27;;;;;;;19.90;12.13;;;;;;;13.43;84.70;102356.50;5031522;28;20525;-43
2022/05/15 07:02:57;;;;;;;25.63;12.83;;;;;;;13.43;80.21;102361.84;5032500;28;20450;-50
2022/05/15 07:05:27;;;;;;;18.27;11.90;;;;;;;13.54;78.36;102362.28;5032367;28;20447;-46
2022/05/15 07:07:55;;;;;;;17.73;11.60;;;;;;;13.36;76.39;102361.72;5032172;28;20424;-50
2022/05/15 07:10:25;;;;;;;17.23;11.30;;;;;;;13.55;77.69;102369.34;5031079;28;20873;-45
2022/05/15 07:12:52;;;;;;;15.93;11.53;;;;;;;13.85;78.53;102363.09;5032035;28;20425;-49
2022/05/15 07:15:20;;;;;;;16.30;10.60;;;;;;;14.09;77.51;102370.13;5030992;28;20436;-50
2022/05/15 07:17:48;;;;;;;15.40;10.73;;;;;;;14.30;77.44;102364.91;5031535;28;20464;-44
2022/05/15 07:20:17;;;;;;;15.87;10.30;;;;;;;14.48;76.63;102377.19;5031273;28;20464;-52
2022/05/15 07:22:46;;;;;;;20.13;11.13;;;;;;;14.28;72.19;102371.44;5032082;28;21211;-48
2022/05/15 07:25:13;;;;;;;14.00;10.17;;;;;;;14.57;74.94;102378.78;5031884;28;20436;-46
2022/05/15 07:27:41;;;;;;;19.70;10.00;;;;;;;14.88;75.35;102368.69;5031548;28;20460;-46
2022/05/15 07:30:10;;;;;;;17.80;10.40;;;;;;;15.26;75.72;102372.91;5031087;28;20470;-50
2022/05/15 07:32:43;;;;;;;15.90;10.37;;;;;;;15.57;71.63;102369.19;5031746;28;20578;-47
2022/05/15 07:35:11;;;;;;;14.50;9.07;;;;;;;16.60;76.94;102370.38;5031871;28;20431;-50
2022/05/15 07:37:40;;;;;;;13.50;8.70;;;;;;;17.46;75.00;102359.00;5031667;28;20969;-48
2022/05/15 07:40:09;;;;;;;15.57;9.97;;;;;;;17.82;68.85;102363.28;5028414;28;20476;-46
2022/05/15 07:42:38;;;;;;;21.90;9.90;;;;;;;18.12;65.47;102365.38;5031900;28;20432;-50
2022/05/15 07:45:07;;;;;;;15.10;10.63;;;;;;;18.50;64.47;102367.47;5031225;28;20436;-48
2022/05/15 07:47:35;;;;;;;19.27;11.43;;;;;;;18.36;59.84;102372.03;5031387;28;20570;-44
2022/05/15 07:50:03;;;;;;;20.10;11.67;;;;;;;18.52;59.27;102371.63;5031181;28;20470;-50
2022/05/15 07:52:30;;;;;;;15.97;11.33;;;;;;;18.70;59.70;102370.97;5031634;28;20458;-49
2022/05/15 07:54:59;;;;;;;13.23;9.67;;;;;;;19.10;59.70;102380.66;5031639;28;20439;-46
2022/05/15 07:57:27;;;;;;;16.40;9.83;;;;;;;19.06;54.62;102374.00;5031674;28;20451;-45
2022/05/15 07:59:56;;;;;;;16.00;9.20;;;;;;;18.88;55.88;102375.72;5030507;28;20474;-49
2022/05/15 08:02:23;;;;;;;16.87;11.03;;;;;;;17.79;55.29;102375.31;5031473;28;20428;-46
2022/05/15 08:10:23;;;;;;;13.70;10.17;;;;;;;17.95;60.38;102377.59;5030766;28;20463;-48
2022/05/15 08:12:50;;;;;;;14.53;9.50;;;;;;;18.33;58.79;102367.06;5031462;28;20434;-47
2022/05/15 08:15:18;;;;;;;19.63;10.17;;;;;;;18.55;55.84;102367.66;5031114;28;20442;-46
2022/05/15 08:17:47;;;;;;;17.40;11.10;;;;;;;18.57;56.14;102373.72;5031028;28;20468;-46
2022/05/15 08:25:45;;;;;;;16.40;10.83;;;;;;;19.61;54.44;102380.66;5034793;28;20458;-47
2022/05/15 08:28:12;;;;;;;14.03;11.20;;;;;;;19.81;52.62;102380.53;5034601;28;20435;-46
2022/05/15 08:30:40;;;;;;;19.77;11.83;;;;;;;19.70;53.40;102371.25;5034319;28;20455;-48
2022/05/15 08:33:10;;;;;;;15.17;10.47;;;;;;;19.17;50.50;102370.66;5035189;28;20427;-48
2022/05/15 08:35:38;;;;;;;14.63;10.20;;;;;;;18.77;53.96;102379.91;5033757;28;20439;-45
2022/05/15 08:38:05;;;;;;;15.57;10.00;;;;;;;18.97;55.58;102374.44;5034697;28;20438;-46
2022/05/15 08:40:47;;;;;;;10.70;8.73;;;;;;;19.17;55.41;102372.53;5032011;28;20471;-47
2022/05/15 08:43:22;;;;;;;17.97;10.23;;;;;;;19.11;54.82;102376.91;5034583;28;20438;-48
2022/05/15 08:45:59;;;;;;;12.33;9.60;;;;;;;19.25;53.55;102367.69;5034970;28;20477;-47
2022/05/15 08:48:28;;;;;;;12.63;10.07;;;;;;;19.00;51.64;102366.75;5027892;28;20423;-51
2022/05/15 08:50:59;;;;;;;13.40;10.37;;;;;;;18.69;52.94;102366.63;5033122;28;20463;-48
2022/05/15 08:53:32;;;;;;;15.20;11.50;;;;;;;18.23;54.63;102372.84;5033866;28;20796;-49
2022/05/15 08:56:07;;;;;;;12.90;9.67;;;;;;;18.34;55.91;102374.09;5033913;28;20459;-48
2022/05/15 08:58:40;;;;;;;15.27;10.00;;;;;;;18.53;55.95;102365.19;5033626;28;20454;-46
2022/05/15 09:01:11;;;;;;;16.00;11.47;;;;;;;18.52;55.39;102365.38;5033706;28;20510;-49
2022/05/15 09:03:39;;;;;;;14.33;9.60;;;;;;;18.33;54.42;102364.34;5034481;28;20436;-48
2022/05/15 09:06:15;;;;;;;18.20;9.60;;;;;;;18.30;54.86;102370.16;5034343;28;20450;-48
2022/05/15 09:09:00;;;;;;;13.70;8.53;;;;;;;18.21;54.21;102357.91;5034705;28;20431;-45
2022/05/15 09:11:42;;;;;;;9.50;8.57;;;;;;;17.82;55.10;102364.09;5033272;28;20456;-48
2022/05/15 09:14:15;;;;;;;16.00;9.87;;;;;;;17.73;55.18;102359.94;5034486;28;20428;-49
2022/05/15 09:16:54;;;;;;;12.27;8.67;;;;;;;17.84;55.40;102364.72;5034134;28;20470;-49
2022/05/15 09:19:23;;;;;;;16.77;9.10;;;;;;;17.88;57.65;102365.16;5033848;28;20511;-47
2022/05/15 09:21:54;;;;;;;13.63;9.40;;;;;;;17.92;56.25;102359.13;5033877;28;20471;-50
2022/05/15 09:24:30;;;;;;;10.47;8.73;;;;;;;18.03;56.93;102361.22;5033982;28;20434;-51
2022/05/15 09:27:12;;;;;;;11.80;9.23;;;;;;;18.49;55.96;102366.63;5033882;28;20456;-48
2022/05/15 09:29:39;;;;;;;11.77;8.33;;;;;;;18.85;55.31;102358.06;5033667;28;20472;-48
2022/05/15 09:32:20;;;;;;;11.20;7.93;;;;;;;19.09;54.78;102351.09;5033528;28;20427;-48
2022/05/15 09:34:48;;;;;;;15.33;7.50;;;;;;;19.35;54.00;102354.53;5034016;28;20442;-49
2022/05/15 09:40:13;;;;;;;10.30;8.33;;;;;;;18.53;52.48;102351.69;5032583;28;20928;-48
2022/05/15 09:45:50;;;;;;;8.23;7.43;;;;;;;18.40;53.00;102350.84;5033696;28;20431;-48
2022/05/15 09:48:22;;;;;;;10.37;7.77;;;;;;;18.67;54.66;102347.91;5033529;28;20785;-48
2022/05/15 09:50:58;;;;;;;21.63;8.53;;;;;;;18.48;54.92;102342.53;5032912;28;20459;-47
2022/05/15 09:53:33;;;;;;;12.07;7.43;;;;;;;18.31;54.14;102347.50;5033413;28;20431;-50
2022/05/15 09:56:04;;;;;;;9.97;7.00;;;;;;;18.43;53.22;102351.22;5033193;28;20455;-50
2022/05/15 09:58:53;;;;;;;11.50;7.30;;;;;;;18.33;55.30;102342.75;5033542;28;20460;-46
2022/05/15 10:01:25;;;;;;;9.17;7.40;;;;;;;18.25;54.50;102340.22;5032537;28;20480;-52
2022/05/15 10:03:58;;;;;;;11.43;8.20;;;;;;;18.52;55.33;102335.66;5033553;28;20842;-48
2022/05/15 10:06:28;;;;;;;9.03;7.00;;;;;;;18.97;55.03;102336.59;5033159;28;20554;-48
2022/05/15 10:09:11;;;;;;;11.67;7.47;;;;;;;19.40;53.26;102339.56;5032885;28;20443;-48
2022/05/15 10:11:42;;;;;;;17.30;9.30;;;;;;;19.01;52.63;102333.25;5032397;28;20451;-48
2022/05/15 10:14:23;;;;;;;13.53;8.13;;;;;;;18.88;53.92;102327.06;5033092;28;20543;-46
2022/05/15 10:16:56;;;;;;;12.30;7.33;;;;;;;18.96;54.60;102329.53;5033081;28;20818;-48
2022/05/15 10:19:32;;;;;;;10.17;8.17;;;;;;;19.35;55.13;102329.38;5032462;28;20434;-51
2022/05/15 10:22:12;;;;;;;10.53;7.00;;;;;;;19.22;53.31;102335.69;5032911;28;20475;-47
2022/05/15 10:24:44;;;;;;;10.53;7.20;;;;;;;19.10;51.78;102321.16;5032880;28;20805;-48
2022/05/15 10:27:19;;;;;;;10.27;6.67;;;;;;;19.38;52.95;102322.69;5032952;28;20448;-49
2022/05/15 10:29:56;;;;;;;9.50;6.63;;;;;;;19.68;51.31;102323.81;5032316;28;20983;-48
2022/05/15 10:32:29;;;;;;;12.23;7.07;;;;;;;19.56;49.14;102314.72;5032864;28;20428;-46
2022/05/15 10:34:58;;;;;;;6.50;5.43;;;;;;;19.98;50.81;102305.84;5033083;28;20435;-48
2022/05/15 10:37:52;;;;;;;10.87;6.10;;;;;;;20.22;47.94;102312.34;5032483;28;20463;-46
2022/05/15 10:40:27;;;;;;;10.63;6.77;;;;;;;20.58;47.85;102301.56;5032039;28;20464;-49
2022/05/15 10:43:27;;;;;;;9.40;5.30;;;;;;;20.79;48.27;102301.13;5032690;28;20515;-46
2022/05/15 10:46:05;;;;;;;13.27;5.07;;;;;;;20.92;43.35;102298.25;5032268;28;20482;-47
2022/05/15 10:48:42;;;;;;;10.33;5.90;;;;;;;20.60;47.44;102298.63;5032409;28;20416;-51
2022/05/15 10:51:18;;;;;;;8.07;5.70;;;;;;;20.81;48.01;102299.03;5031835;28;20466;-49
2022/05/15 10:57:24;;;;;;;11.37;5.67;;;;;;;20.20;48.21;102288.16;5032475;28;20444;-51
2022/05/15 11:00:00;;;;;;;16.80;15.43;;;;;;;19.81;48.87;102293.91;5031946;28;20492;-53
2022/05/15 11:03:04;;;;;;;8.33;5.10;;;;;;;19.48;47.61;102298.72;5032181;28;20463;-49
2022/05/15 11:05:33;;;;;;;8.77;6.07;;;;;;;19.35;49.70;102297.72;5032302;28;20462;-49
2022/05/15 11:08:28;;;;;;;10.27;5.10;;;;;;;19.28;47.96;102288.00;5032282;28;20439;-54
2022/05/15 11:11:02;;;;;;;6.20;4.60;;;;;;;19.59;46.83;102281.81;5031664;28;20562;-52
2022/05/15 11:13:36;;;;;;;7.43;5.00;;;;;;;19.73;47.75;102280.66;5032161;28;20789;-49
2022/05/15 11:16:11;;;;;;;8.73;4.70;;;;;;;20.03;46.91;102278.97;5032102;28;20459;-50
2022/05/15 11:18:58;;;;;;;6.10;4.73;;;;;;;20.30;47.13;102279.56;5032082;28;20462;-53
2022/05/15 11:21:34;;;;;;;10.03;4.97;;;;;;;20.35;43.72;102277.84;5031470;28;20961;-48
2022/05/15 11:24:09;;;;;;;10.40;4.87;;;;;;;20.19;44.50;102269.44;5032107;28;20434;-53
2022/05/15 11:26:41;;;;;;;8.00;4.80;;;;;;;20.24;44.13;102270.44;5031926;28;20439;-50
2022/05/15 11:29:13;;;;;;;7.13;4.47;;;;;;;20.21;42.49;102267.34;5031625;28;20454;-50
2022/05/15 11:31:46;;;;;;;4.43;4.03;;;;;;;19.89;42.38;102269.31;5031943;28;20439;-52
2022/05/15 11:34:15;;;;;;;6.80;4.90;;;;;;;20.03;43.06;102268.13;5031832;28;20921;-48
2022/05/15 11:36:45;;;;;;;6.20;4.23;;;;;;;20.41;42.42;102270.69;5031771;28;20451;-52
2022/05/15 11:39:30;;;;;;;10.63;4.03;;;;;;;20.67;42.55;102258.75;5031307;28;20522;-51
2022/05/15 11:42:17;;;;;;;5.33;3.70;;;;;;;21.02;42.29;102258.91;5030125;28;20480;-52
2022/05/15 11:44:48;;;;;;;5.70;4.27;;;;;;;20.92;43.42;102251.31;5031963;28;20775;-50
2022/05/15 11:47:31;;;;;;;5.60;4.60;;;;;;;20.89;42.47;102259.91;5031561;28;20448;-52
2022/05/15 11:50:06;;;;;;;5.00;4.43;;;;;;;20.60;42.81;102253.41;5030949;28;20464;-50
2022/05/15 11:52:37;;;;;;;7.20;4.73;;;;;;;20.38;42.67;102253.00;5031648;28;20428;-54
2022/05/15 11:55:38;;;;;;;5.90;4.40;;;;;;;20.41;41.63;102257.16;5031808;28;20431;-48
2022/05/15 11:58:23;;;;;;;8.50;5.47;;;;;;;20.22;41.98;102261.66;5035907;28;20424;-51